Time;durP1;ratioP1;P1;durP2;ratioP2;P2;SDS_P1;SDS_P2;PMS_P1;PMS_P2;Temp;Humidity;BMP_temperature;BMP_pressure;BME280_temperature;BME280_humidity;BME280_pressure;Samples;Min_cycle;Max_cycle;Signal;HPM_P1;HPM_P2
2023/06/22 00:02:14;;;;;;;14.88;11.35;;;;;;;;;;10208573;29;20031;-86
2023/06/22 00:07:15;;;;;;;17.40;13.18;;;;;;;;;;10191775;29;20090;-86
2023/06/22 00:12:17;;;;;;;21.80;13.55;;;;;;;;;;10191622;29;20067;-87
2023/06/22 00:17:18;;;;;;;19.60;12.70;;;;;;;;;;10191646;29;20044;-87
2023/06/22 00:22:27;;;;;;;17.13;11.88;;;;;;;;;;10190954;29;20040;-87
2023/06/22 00:27:28;;;;;;;20.08;13.68;;;;;;;;;;10190379;29;20036;-88
2023/06/22 00:32:29;;;;;;;17.63;13.80;;;;;;;;;;10208325;29;20080;-86
2023/06/22 00:37:31;;;;;;;24.10;15.90;;;;;;;;;;10190356;29;20104;-86
2023/06/22 00:42:32;;;;;;;19.90;13.82;;;;;;;;;;10190811;29;20028;-87
2023/06/22 00:47:35;;;;;;;22.15;15.50;;;;;;;;;;10207894;29;20484;-87
2023/06/22 00:52:36;;;;;;;22.48;13.85;;;;;;;;;;10181356;29;20054;-86
2023/06/22 00:57:37;;;;;;;25.67;15.45;;;;;;;;;;10189997;29;20487;-86
2023/06/22 01:02:38;;;;;;;23.70;14.32;;;;;;;;;;10189619;29;20032;-86
2023/06/22 01:07:42;;;;;;;20.70;14.93;;;;;;;;;;10189340;29;20035;-86
2023/06/22 01:12:47;;;;;;;22.70;14.43;;;;;;;;;;10206756;29;20038;-86
2023/06/22 01:17:48;;;;;;;22.33;15.15;;;;;;;;;;10206874;29;20506;-86
2023/06/22 01:23:01;;;;;;;25.02;17.95;;;;;;;;;;10206614;29;20027;-86
2023/06/22 01:28:20;;;;;;;24.38;16.25;;;;;;;;;;10205551;29;20522;-86
2023/06/22 01:33:21;;;;;;;21.13;14.48;;;;;;;;;;10206125;29;20642;-87
2023/06/22 01:38:22;;;;;;;25.35;16.33;;;;;;;;;;10187136;29;20504;-86
2023/06/22 01:43:24;;;;;;;23.85;14.60;;;;;;;;;;10188562;29;20104;-86
2023/06/22 01:48:25;;;;;;;26.23;16.33;;;;;;;;;;10204912;29;20593;-86
2023/06/22 01:53:27;;;;;;;22.88;16.30;;;;;;;;;;10187630;29;20567;-86
2023/06/22 01:58:28;;;;;;;27.90;16.90;;;;;;;;;;10187217;29;20500;-85
2023/06/22 02:03:32;;;;;;;22.20;15.32;;;;;;;;;;10204555;29;20057;-86
2023/06/22 02:08:37;;;;;;;25.65;16.65;;;;;;;;;;10205138;29;20036;-85
2023/06/22 02:13:42;;;;;;;23.55;15.75;;;;;;;;;;10186832;29;20043;-86
2023/06/22 02:18:45;;;;;;;;;;;;;;;;;;10204897;29;20118;-86
2023/06/22 02:23:46;;;;;;;26.38;17.85;;;;;;;;;;10203655;29;19926;-86
2023/06/22 02:28:49;;;;;;;27.05;17.55;;;;;;;;;;10186758;29;20392;-86
2023/06/22 02:33:50;;;;;;;33.80;19.52;;;;;;;;;;10203719;29;20028;-86
2023/06/22 02:38:51;;;;;;;26.50;18.75;;;;;;;;;;10185993;29;20047;-85
2023/06/22 02:43:52;;;;;;;33.65;20.52;;;;;;;;;;10204069;29;20102;-85
2023/06/22 02:48:53;;;;;;;31.45;21.20;;;;;;;;;;10192881;29;20039;-86
2023/06/22 02:53:57;;;;;;;23.40;16.52;;;;;;;;;;10199563;29;20067;-85
2023/06/22 02:59:01;;;;;;;29.90;18.27;;;;;;;;;;10216185;29;20479;-85
2023/06/22 03:04:02;;;;;;;28.90;16.90;;;;;;;;;;10207586;29;20788;-85
2023/06/22 03:09:04;;;;;;;23.23;16.92;;;;;;;;;;10193954;29;20110;-87
2023/06/22 03:14:05;;;;;;;32.53;19.45;;;;;;;;;;10216557;29;20511;-86
2023/06/22 03:19:07;;;;;;;29.17;19.92;;;;;;;;;;10197823;29;20040;-85
2023/06/22 03:24:09;;;;;;;29.27;19.23;;;;;;;;;;10198406;29;20071;-85
2023/06/22 03:29:10;;;;;;;30.00;19.23;;;;;;;;;;10215191;29;20052;-85
2023/06/22 03:34:12;;;;;;;29.17;19.83;;;;;;;;;;10198585;29;20031;-85
2023/06/22 03:39:13;;;;;;;26.98;16.80;;;;;;;;;;10198053;29;20039;-85
2023/06/22 03:44:14;;;;;;;21.85;16.13;;;;;;;;;;10198199;29;20038;-86
2023/06/22 03:49:16;;;;;;;22.38;15.40;;;;;;;;;;10197904;29;20054;-85
2023/06/22 03:54:17;;;;;;;27.25;15.70;;;;;;;;;;10198174;29;20376;-85
2023/06/22 03:59:18;;;;;;;26.75;16.27;;;;;;;;;;10200670;29;20033;-85
2023/06/22 04:04:19;;;;;;;20.38;14.10;;;;;;;;;;10208216;29;20035;-85
2023/06/22 04:09:21;;;;;;;23.20;15.77;;;;;;;;;;10208588;29;20079;-85
2023/06/22 04:14:22;;;;;;;27.13;17.98;;;;;;;;;;10190964;29;20020;-86
2023/06/22 04:19:23;;;;;;;29.27;19.13;;;;;;;;;;10207942;29;20036;-84
2023/06/22 04:24:24;;;;;;;34.88;22.20;;;;;;;;;;10207917;29;20633;-85
2023/06/22 04:29:28;;;;;;;26.38;19.25;;;;;;;;;;10208628;29;20044;-85
2023/06/22 04:34:30;;;;;;;30.95;21.10;;;;;;;;;;10190203;29;20042;-85
2023/06/22 04:39:31;;;;;;;31.05;22.77;;;;;;;;;;10207830;29;20020;-85
2023/06/22 04:44:32;;;;;;;29.45;22.00;;;;;;;;;;10190667;29;20063;-84
2023/06/22 04:49:34;;;;;;;32.15;23.90;;;;;;;;;;10190028;29;20424;-87
2023/06/22 04:54:37;;;;;;;35.45;26.73;;;;;;;;;;10206872;29;20034;-86
2023/06/22 04:59:39;;;;;;;37.05;27.27;;;;;;;;;;10206810;29;20039;-85
2023/06/22 05:04:40;;;;;;;33.05;26.25;;;;;;;;;;10205577;29;20396;-84
2023/06/22 05:09:41;;;;;;;34.45;27.45;;;;;;;;;;10206584;29;20118;-86
2023/06/22 05:14:41;;;;;;;33.67;27.65;;;;;;;;;;10205539;29;20407;-87
2023/06/22 05:19:48;;;;;;;34.85;27.63;;;;;;;;;;10164937;29;20403;-86
2023/06/22 05:24:49;;;;;;;31.38;24.73;;;;;;;;;;10174294;29;20091;-86
2023/06/22 05:29:50;;;;;;;30.95;25.13;;;;;;;;;;10181244;29;20055;-86
2023/06/22 05:34:51;;;;;;;27.88;23.00;;;;;;;;;;10176006;29;20123;-86
2023/06/22 05:39:55;;;;;;;26.42;21.65;;;;;;;;;;10187802;29;20088;-85
2023/06/22 05:44:56;;;;;;;24.38;21.08;;;;;;;;;;10175278;29;20655;-88
2023/06/22 05:49:58;;;;;;;25.75;21.98;;;;;;;;;;10166232;29;20071;-88
2023/06/22 05:54:59;;;;;;;27.02;21.50;;;;;;;;;;10157067;29;20083;-86
2023/06/22 06:00:00;;;;;;;26.63;20.95;;;;;;;;;;10162268;29;20080;-88
2023/06/22 06:05:03;;;;;;;26.27;20.20;;;;;;;;;;10160000;29;20106;-89
2023/06/22 06:10:06;;;;;;;21.90;17.38;;;;;;;;;;10172872;29;20028;-88
2023/06/22 06:15:07;;;;;;;21.60;15.55;;;;;;;;;;10162361;29;20039;-87
2023/06/22 06:20:08;;;;;;;14.93;11.98;;;;;;;;;;10185724;29;20047;-87
2023/06/22 06:25:09;;;;;;;14.73;12.07;;;;;;;;;;10164040;29;20035;-89
2023/06/22 06:30:15;;;;;;;15.00;12.82;;;;;;;;;;10188548;29;20134;-88
2023/06/22 06:35:16;;;;;;;14.93;12.48;;;;;;;;;;10178775;29;20040;-87
2023/06/22 06:40:19;;;;;;;15.52;12.48;;;;;;;;;;10171659;29;20040;-87
2023/06/22 06:45:23;;;;;;;14.73;12.23;;;;;;;;;;10181041;29;20115;-86
2023/06/22 06:50:24;;;;;;;13.07;11.35;;;;;;;;;;10167565;29;20495;-86
2023/06/22 06:55:25;;;;;;;14.40;10.68;;;;;;;;;;10176510;29;20100;-89
2023/06/22 07:00:26;;;;;;;12.85;9.50;;;;;;;;;;10152863;29;20035;-87
2023/06/22 07:05:27;;;;;;;10.52;8.40;;;;;;;;;;10178502;29;20122;-87
2023/06/22 07:10:29;;;;;;;9.90;7.80;;;;;;;;;;10185375;29;20032;-86
2023/06/22 07:15:30;;;;;;;9.38;7.40;;;;;;;;;;10202035;29;20043;-83
2023/06/22 07:20:31;;;;;;;7.53;6.32;;;;;;;;;;10203201;29;20038;-88
2023/06/22 07:25:32;;;;;;;8.20;6.43;;;;;;;;;;10147598;29;20047;-89
2023/06/22 07:30:33;;;;;;;8.02;6.60;;;;;;;;;;10173039;29;20142;-88
2023/06/22 07:35:34;;;;;;;6.68;5.90;;;;;;;;;;10203170;29;20114;-88
2023/06/22 07:40:35;;;;;;;8.57;5.80;;;;;;;;;;10197433;29;20036;-86
2023/06/22 07:45:39;;;;;;;8.32;5.93;;;;;;;;;;10208166;29;20035;-86
2023/06/22 07:50:40;;;;;;;;;;;;;;;;;;10209459;29;20019;-83
2023/06/22 07:55:41;;;;;;;7.25;6.18;;;;;;;;;;10207546;29;19923;-87
2023/06/22 08:00:42;;;;;;;8.02;6.10;;;;;;;;;;10209422;29;20395;-85
2023/06/22 08:05:43;;;;;;;10.25;6.57;;;;;;;;;;10206088;29;20042;-86
2023/06/22 08:10:44;;;;;;;7.38;6.22;;;;;;;;;;10200098;29;20510;-87
2023/06/22 08:15:45;;;;;;;7.30;6.60;;;;;;;;;;10207787;29;20045;-86
2023/06/22 08:20:46;;;;;;;9.27;7.25;;;;;;;;;;10206430;29;20042;-87
2023/06/22 08:25:50;;;;;;;8.68;6.72;;;;;;;;;;10187544;29;20043;-87
2023/06/22 08:30:51;;;;;;;9.05;6.40;;;;;;;;;;10202216;29;20785;-86
2023/06/22 08:35:52;;;;;;;9.00;7.47;;;;;;;;;;10207214;29;20055;-87
2023/06/22 08:40:53;;;;;;;7.78;6.63;;;;;;;;;;10207420;29;20027;-87
2023/06/22 08:45:54;;;;;;;8.25;6.18;;;;;;;;;;10198393;29;20036;-89
2023/06/22 08:50:56;;;;;;;7.25;6.32;;;;;;;;;;10202769;29;20044;-88
2023/06/22 08:55:57;;;;;;;7.80;6.90;;;;;;;;;;10204520;29;20494;-90
2023/06/22 09:01:00;;;;;;;7.65;6.22;;;;;;;;;;10205692;29;20047;-89
2023/06/22 09:06:01;;;;;;;7.23;6.47;;;;;;;;;;10173222;29;20036;-87
2023/06/22 09:11:02;;;;;;;7.35;6.32;;;;;;;;;;10203138;29;20284;-88
2023/06/22 09:16:03;;;;;;;8.45;7.03;;;;;;;;;;10204703;29;20075;-88
2023/06/22 09:21:04;;;;;;;7.88;6.72;;;;;;;;;;10204244;29;20046;-89
2023/06/22 09:26:06;;;;;;;9.68;6.85;;;;;;;;;;10204006;29;20509;-86
2023/06/22 09:31:07;;;;;;;8.30;7.40;;;;;;;;;;10196978;29;20052;-87
2023/06/22 09:36:08;;;;;;;10.43;8.05;;;;;;;;;;10190401;29;20043;-88
2023/06/22 09:41:09;;;;;;;8.63;7.30;;;;;;;;;;10185366;29;20052;-87
2023/06/22 09:46:10;;;;;;;9.75;7.57;;;;;;;;;;10203412;29;20035;-88
2023/06/22 09:51:12;;;;;;;9.82;7.55;;;;;;;;;;10204929;29;20038;-87
2023/06/22 09:56:14;;;;;;;9.82;7.80;;;;;;;;;;10202111;29;20044;-86
2023/06/22 10:01:15;;;;;;;10.57;7.45;;;;;;;;;;10204452;29;20024;-88
2023/06/22 10:06:16;;;;;;;9.43;8.10;;;;;;;;;;10201924;29;20035;-88
2023/06/22 10:11:18;;;;;;;10.52;8.73;;;;;;;;;;10202798;29;20199;-86
2023/06/22 10:16:19;;;;;;;9.85;7.47;;;;;;;;;;10203976;29;20409;-87
2023/06/22 10:21:20;;;;;;;10.60;8.63;;;;;;;;;;10202289;29;20028;-88
2023/06/22 10:26:21;;;;;;;10.38;7.95;;;;;;;;;;10203949;29;20035;-89
2023/06/22 10:31:22;;;;;;;8.45;7.65;;;;;;;;;;10203051;29;20534;-87
2023/06/22 10:36:23;;;;;;;9.82;7.13;;;;;;;;;;10186382;29;20042;-87
2023/06/22 10:41:24;;;;;;;8.75;7.85;;;;;;;;;;10203264;29;20023;-89
2023/06/22 10:46:28;;;;;;;9.20;7.53;;;;;;;;;;10185720;29;20032;-89
2023/06/22 10:51:32;;;;;;;8.52;6.22;;;;;;;;;;10185864;29;20127;-86
2023/06/22 10:56:33;;;;;;;10.00;7.15;;;;;;;;;;10184212;29;20079;-88
2023/06/22 11:01:40;;;;;;;10.38;7.53;;;;;;;;;;10185508;29;20063;-87
2023/06/22 11:06:41;;;;;;;8.50;7.60;;;;;;;;;;10185462;29;20020;-87
2023/06/22 11:11:45;;;;;;;8.07;7.28;;;;;;;;;;10192424;29;20031;-85
2023/06/22 11:17:02;;;;;;;8.05;7.25;;;;;;;;;;10193128;29;20042;-86
2023/06/22 11:22:03;;;;;;;8.52;7.63;;;;;;;;;;10210576;29;20031;-87
2023/06/22 11:27:04;;;;;;;8.13;7.35;;;;;;;;;;10193335;29;20056;-87
2023/06/22 11:32:07;;;;;;;9.57;7.47;;;;;;;;;;10205529;29;20062;-86
2023/06/22 11:37:08;;;;;;;8.63;7.63;;;;;;;;;;10184613;29;20102;-87
2023/06/22 11:42:09;;;;;;;8.35;6.90;;;;;;;;;;10208000;29;20031;-87
2023/06/22 11:47:10;;;;;;;8.30;7.40;;;;;;;;;;10207838;29;20032;-86
2023/06/22 11:52:11;;;;;;;10.32;8.00;;;;;;;;;;10209159;29;20039;-87
2023/06/22 11:57:13;;;;;;;7.05;6.35;;;;;;;;;;10207036;29;20504;-87
2023/06/22 12:02:14;;;;;;;7.95;6.97;;;;;;;;;;10208138;29;20046;-90
2023/06/22 12:07:15;;;;;;;7.45;6.60;;;;;;;;;;10209169;29;20019;-86
2023/06/22 12:12:16;;;;;;;10.20;7.57;;;;;;;;;;10208765;29;20503;-86
2023/06/22 12:17:17;;;;;;;8.18;6.90;;;;;;;;;;10207968;29;20047;-89
2023/06/22 12:22:18;;;;;;;9.07;7.10;;;;;;;;;;10207037;29;20031;-87
2023/06/22 12:27:19;;;;;;;8.20;7.40;;;;;;;;;;10207931;29;20049;-87
2023/06/22 12:32:20;;;;;;;7.72;7.03;;;;;;;;;;10206036;29;20082;-86
2023/06/22 12:37:21;;;;;;;8.25;7.45;;;;;;;;;;10206096;29;20044;-86
2023/06/22 12:42:22;;;;;;;8.32;6.82;;;;;;;;;;10205615;29;20435;-86
2023/06/22 12:47:23;;;;;;;8.48;7.68;;;;;;;;;;10205460;29;20031;-86
2023/06/22 12:52:25;;;;;;;8.18;7.22;;;;;;;;;;10206774;29;20432;-86
2023/06/22 12:57:26;;;;;;;11.80;9.40;;;;;;;;;;10206440;29;20480;-87
2023/06/22 13:02:27;;;;;;;9.10;7.80;;;;;;;;;;10192960;29;20036;-88
2023/06/22 13:07:28;;;;;;;7.68;6.97;;;;;;;;;;10204713;29;20046;-87
2023/06/22 13:12:29;;;;;;;10.23;6.97;;;;;;;;;;10193654;29;20387;-87
2023/06/22 13:17:30;;;;;;;9.98;7.40;;;;;;;;;;10203383;29;20038;-87
2023/06/22 13:22:32;;;;;;;8.45;7.15;;;;;;;;;;10204299;29;20032;-88
2023/06/22 13:27:33;;;;;;;9.43;7.88;;;;;;;;;;10204261;29;20147;-86
2023/06/22 13:32:34;;;;;;;9.45;7.53;;;;;;;;;;10187660;29;20023;-87
2023/06/22 13:37:35;;;;;;;7.70;6.88;;;;;;;;;;10205536;29;20040;-86
2023/06/22 13:42:36;;;;;;;8.07;6.88;;;;;;;;;;10187921;29;20380;-87
2023/06/22 13:47:37;;;;;;;7.70;6.90;;;;;;;;;;10187884;29;20036;-86
2023/06/22 13:52:38;;;;;;;7.35;6.43;;;;;;;;;;10204337;29;20020;-87
2023/06/22 13:57:39;;;;;;;7.15;6.45;;;;;;;;;;10187294;29;20035;-87
2023/06/22 14:02:41;;;;;;;7.70;6.90;;;;;;;;;;10187352;29;20031;-86
2023/06/22 14:07:42;;;;;;;8.40;6.70;;;;;;;;;;10204388;29;20035;-87
2023/06/22 14:12:44;;;;;;;10.93;6.53;;;;;;;;;;10187024;29;20031;-87
2023/06/22 14:17:45;;;;;;;8.25;6.70;;;;;;;;;;10186211;29;20044;-87
2023/06/22 14:22:46;;;;;;;8.60;7.55;;;;;;;;;;10186388;29;20031;-88
2023/06/22 14:27:47;;;;;;;9.23;7.00;;;;;;;;;;10186785;29;20060;-86
2023/06/22 14:32:48;;;;;;;9.75;7.70;;;;;;;;;;10203322;29;20030;-87
2023/06/22 14:37:49;;;;;;;9.50;7.45;;;;;;;;;;10203544;29;20040;-88
2023/06/22 14:42:50;;;;;;;9.10;7.22;;;;;;;;;;10202351;29;20032;-88
2023/06/22 14:47:51;;;;;;;7.15;6.38;;;;;;;;;;10203538;29;20071;-87
2023/06/22 14:52:52;;;;;;;10.25;7.45;;;;;;;;;;10185347;29;20058;-88
2023/06/22 14:57:53;;;;;;;8.27;6.93;;;;;;;;;;10201754;29;20067;-86
2023/06/22 15:02:54;;;;;;;6.72;6.03;;;;;;;;;;10202983;29;20028;-87
2023/06/22 15:07:55;;;;;;;8.88;6.72;;;;;;;;;;10185622;29;20038;-88
2023/06/22 15:12:56;;;;;;;9.45;7.25;;;;;;;;;;10185008;29;20031;-89
2023/06/22 15:17:57;;;;;;;9.32;8.43;;;;;;;;;;10202384;29;20391;-86
2023/06/22 15:22:58;;;;;;;12.77;6.63;;;;;;;;;;10202039;29;20036;-89
2023/06/22 15:27:59;;;;;;;8.50;7.03;;;;;;;;;;10172507;29;20465;-88
2023/06/22 15:33:01;;;;;;;9.27;7.38;;;;;;;;;;10202355;29;20016;-88
2023/06/22 15:38:02;;;;;;;9.32;7.43;;;;;;;;;;10202009;29;20119;-87
2023/06/22 15:43:04;;;;;;;8.45;7.05;;;;;;;;;;10185199;29;20036;-87
2023/06/22 15:48:05;;;;;;;8.00;7.10;;;;;;;;;;10201847;29;20626;-87
2023/06/22 15:53:06;;;;;;;7.97;6.95;;;;;;;;;;10184493;29;20032;-89
2023/06/22 15:58:09;;;;;;;10.95;7.65;;;;;;;;;;10189706;29;20036;-89
2023/06/22 16:03:10;;;;;;;8.35;7.15;;;;;;;;;;10179138;29;20372;-87
2023/06/22 16:08:11;;;;;;;8.90;7.43;;;;;;;;;;10191003;29;20496;-87
2023/06/22 16:13:12;;;;;;;8.98;7.18;;;;;;;;;;10191211;29;20181;-87
2023/06/22 16:18:13;;;;;;;7.97;7.07;;;;;;;;;;10191278;29;20032;-88
2023/06/22 16:23:14;;;;;;;10.77;7.25;;;;;;;;;;10178721;29;20023;-87
2023/06/22 16:28:15;;;;;;;8.35;7.38;;;;;;;;;;10191236;29;20067;-88
2023/06/22 16:33:16;;;;;;;7.95;6.63;;;;;;;;;;10190494;29;21001;-87
2023/06/22 16:38:17;;;;;;;8.70;7.60;;;;;;;;;;10207289;29;20331;-88
2023/06/22 16:43:18;;;;;;;8.57;6.93;;;;;;;;;;10190424;29;20728;-89
2023/06/22 16:48:19;;;;;;;10.10;7.57;;;;;;;;;;10177111;29;20062;-87
2023/06/22 16:53:21;;;;;;;8.65;7.63;;;;;;;;;;10179282;29;20405;-88
2023/06/22 16:58:23;;;;;;;8.77;7.13;;;;;;;;;;10176172;29;20047;-87
2023/06/22 17:03:33;;;;;;;10.60;8.48;;;;;;;;;;10206431;29;20554;-88
2023/06/22 17:08:35;;;;;;;9.30;7.35;;;;;;;;;;10189245;29;20028;-89
2023/06/22 17:13:36;;;;;;;10.00;7.22;;;;;;;;;;10195359;29;20108;-87
2023/06/22 17:18:39;;;;;;;8.98;7.35;;;;;;;;;;10183471;29;20098;-89
2023/06/22 17:23:40;;;;;;;11.70;8.10;;;;;;;;;;10205262;29;20047;-88
2023/06/22 17:28:51;;;;;;;8.05;7.22;;;;;;;;;;10182471;29;20485;-87
2023/06/22 17:33:52;;;;;;;9.32;7.55;;;;;;;;;;10183176;29;20051;-86
2023/06/22 17:38:59;;;;;;;9.15;8.25;;;;;;;;;;10187894;29;20043;-87
2023/06/22 17:44:01;;;;;;;12.75;7.93;;;;;;;;;;10188331;29;20072;-86
2023/06/22 17:49:02;;;;;;;9.05;7.60;;;;;;;;;;10204584;29;20072;-86
2023/06/22 17:54:03;;;;;;;12.88;8.48;;;;;;;;;;10187769;29;20028;-87
2023/06/22 17:59:04;;;;;;;11.70;7.93;;;;;;;;;;10204156;29;20570;-87
2023/06/22 18:04:06;;;;;;;9.50;8.32;;;;;;;;;;10187310;29;20139;-89
2023/06/22 18:09:08;;;;;;;8.98;8.07;;;;;;;;;;10186850;29;20102;-88
2023/06/22 18:14:09;;;;;;;10.30;8.30;;;;;;;;;;10203864;29;20016;-86
2023/06/22 18:19:10;;;;;;;10.80;7.88;;;;;;;;;;10203591;29;20087;-88
2023/06/22 18:24:11;;;;;;;10.85;8.73;;;;;;;;;;10186879;29;20031;-87
2023/06/22 18:29:12;;;;;;;13.02;8.75;;;;;;;;;;10205491;29;20058;-87
2023/06/22 18:34:14;;;;;;;14.65;9.32;;;;;;;;;;10204046;29;20036;-88
2023/06/22 18:39:15;;;;;;;13.05;8.73;;;;;;;;;;10186038;29;20035;-86
2023/06/22 18:44:26;;;;;;;11.98;9.45;;;;;;;;;;10203253;29;20483;-88
2023/06/22 18:49:37;;;;;;;11.68;8.38;;;;;;;;;;10203194;29;20028;-90
2023/06/22 18:54:39;;;;;;;9.40;7.93;;;;;;;;;;10203370;29;20030;-86
2023/06/22 18:59:47;;;;;;;12.60;8.45;;;;;;;;;;10185566;29;20063;-86
2023/06/22 19:04:48;;;;;;;15.48;8.77;;;;;;;;;;10186079;29;20178;-90
2023/06/22 19:10:09;;;;;;;9.98;8.02;;;;;;;;;;10185817;29;20439;-87
2023/06/22 19:15:13;;;;;;;10.20;8.27;;;;;;;;;;10185615;29;20046;-89
2023/06/22 19:20:18;;;;;;;11.50;8.37;;;;;;;;;;10202796;29;20079;-86
2023/06/22 19:25:21;;;;;;;10.52;8.02;;;;;;;;;;10203295;29;20268;-87
2023/06/22 19:30:23;;;;;;;12.32;8.50;;;;;;;;;;10205472;29;20091;-86
2023/06/22 19:35:26;;;;;;;12.70;9.38;;;;;;;;;;10192558;29;20036;-87
2023/06/22 19:40:27;;;;;;;12.23;9.15;;;;;;;;;;10192583;29;20036;-88
2023/06/22 19:45:28;;;;;;;10.75;9.05;;;;;;;;;;10209820;29;20032;-88
2023/06/22 19:50:34;;;;;;;11.23;8.93;;;;;;;;;;10191971;29;20031;-88
2023/06/22 19:55:37;;;;;;;14.05;9.63;;;;;;;;;;10209111;29;20046;-88
2023/06/22 20:00:38;;;;;;;12.55;9.73;;;;;;;;;;10209366;29;20534;-90
2023/06/22 20:05:42;;;;;;;13.10;9.15;;;;;;;;;;10208803;29;20095;-87
2023/06/22 20:10:44;;;;;;;9.77;8.37;;;;;;;;;;10178711;29;20028;-88
2023/06/22 20:15:46;;;;;;;12.20;9.25;;;;;;;;;;10191614;29;20050;-86
2023/06/22 20:20:48;;;;;;;10.80;9.00;;;;;;;;;;10208707;29;20042;-87
2023/06/22 20:25:51;;;;;;;13.75;9.07;;;;;;;;;;10190989;29;20464;-87
2023/06/22 20:31:11;;;;;;;12.32;9.43;;;;;;;;;;10182014;29;20060;-86
2023/06/22 20:36:16;;;;;;;12.75;10.20;;;;;;;;;;10194352;29;20063;-88
2023/06/22 20:41:17;;;;;;;14.05;10.07;;;;;;;;;;10207724;29;20119;-86
2023/06/22 20:46:18;;;;;;;13.07;10.43;;;;;;;;;;10194438;29;20040;-87
2023/06/22 20:51:19;;;;;;;14.43;10.45;;;;;;;;;;10202069;29;20131;-87
2023/06/22 20:56:20;;;;;;;14.88;10.88;;;;;;;;;;10206830;29;20091;-88
2023/06/22 21:01:21;;;;;;;15.70;11.35;;;;;;;;;;10204835;29;20515;-86
2023/06/22 21:06:22;;;;;;;14.55;11.48;;;;;;;;;;10206681;29;20484;-85
2023/06/22 21:11:23;;;;;;;17.02;12.60;;;;;;;;;;10205688;29;20036;-88
2023/06/22 21:16:24;;;;;;;17.02;12.90;;;;;;;;;;10204787;29;20105;-88
2023/06/22 21:21:25;;;;;;;16.92;12.30;;;;;;;;;;10204655;29;20054;-88
2023/06/22 21:26:26;;;;;;;17.05;12.30;;;;;;;;;;10204498;29;20020;-87
2023/06/22 21:31:27;;;;;;;18.33;12.18;;;;;;;;;;10205710;29;20060;-88
2023/06/22 21:36:28;;;;;;;18.65;12.18;;;;;;;;;;10205256;29;20038;-88
2023/06/22 21:41:29;;;;;;;15.48;12.25;;;;;;;;;;10172252;29;20499;-87
2023/06/22 21:46:30;;;;;;;17.00;11.68;;;;;;;;;;10182217;29;20035;-88
2023/06/22 21:51:32;;;;;;;17.45;12.45;;;;;;;;;;10188021;29;20642;-88
2023/06/22 21:56:33;;;;;;;16.40;11.25;;;;;;;;;;10186252;29;20043;-87
2023/06/22 22:01:34;;;;;;;16.92;12.82;;;;;;;;;;10170317;29;20032;-89
2023/06/22 22:06:35;;;;;;;15.70;12.55;;;;;;;;;;10182184;29;20491;-86
2023/06/22 22:11:36;;;;;;;16.63;11.70;;;;;;;;;;10204299;29;20027;-87
2023/06/22 22:16:37;;;;;;;16.13;12.75;;;;;;;;;;10204095;29;20043;-86
2023/06/22 22:21:39;;;;;;;13.80;11.68;;;;;;;;;;10203910;29;20031;-86
2023/06/22 22:26:40;;;;;;;16.42;12.77;;;;;;;;;;10178855;29;20380;-86
2023/06/22 22:31:41;;;;;;;18.80;14.30;;;;;;;;;;10186265;29;20063;-88
2023/06/22 22:36:43;;;;;;;19.70;14.40;;;;;;;;;;10191109;29;20110;-85
2023/06/22 22:41:44;;;;;;;19.77;14.73;;;;;;;;;;10204021;29;20039;-86
2023/06/22 22:46:45;;;;;;;22.13;15.48;;;;;;;;;;10186241;29;20760;-86
2023/06/22 22:51:46;;;;;;;21.98;14.77;;;;;;;;;;10186033;29;20035;-87
2023/06/22 22:56:47;;;;;;;20.70;16.13;;;;;;;;;;10202848;29;20518;-86
2023/06/22 23:01:48;;;;;;;23.95;16.83;;;;;;;;;;10202907;29;20060;-86
2023/06/22 23:06:49;;;;;;;24.33;16.10;;;;;;;;;;10209480;29;20084;-86
2023/06/22 23:11:50;;;;;;;21.83;16.73;;;;;;;;;;10210762;29;20036;-87
2023/06/22 23:16:51;;;;;;;24.75;15.70;;;;;;;;;;10193677;29;20164;-87
2023/06/22 23:21:52;;;;;;;19.58;14.65;;;;;;;;;;10193286;29;20046;-87
2023/06/22 23:26:56;;;;;;;22.85;16.52;;;;;;;;;;10211264;29;20735;-87
2023/06/22 23:31:57;;;;;;;19.73;15.20;;;;;;;;;;10210082;29;20706;-87
2023/06/22 23:36:59;;;;;;;24.73;15.63;;;;;;;;;;10209701;29;20040;-88
2023/06/22 23:42:00;;;;;;;24.15;17.33;;;;;;;;;;10210013;29;20492;-87
2023/06/22 23:47:02;;;;;;;25.05;17.10;;;;;;;;;;10209266;29;20771;-87
2023/06/22 23:52:04;;;;;;;27.02;18.55;;;;;;;;;;10209303;29;20030;-88
2023/06/22 23:57:05;;;;;;;27.92;18.98;;;;;;;;;;10191561;29;20040;-88
